Time;durP1;ratioP1;P1;durP2;ratioP2;P2;SDS_P1;SDS_P2;PMS_P1;PMS_P2;Temp;Humidity;BMP_temperature;BMP_pressure;BME280_temperature;BME280_humidity;BME280_pressure;Samples;Min_cycle;Max_cycle;Signal;HPM_P1;HPM_P2
2021/01/03 00:00:28;;;;;;;7.40;4.43;;;;;;;-0.32;79.66;96677.72;5027153;28;20099;-76
2021/01/03 00:02:54;;;;;;;7.43;3.97;;;;;;;-0.22;79.78;96669.72;5027874;28;20524;-77
2021/01/03 00:05:24;;;;;;;10.52;4.57;;;;;;;-0.36;79.66;96666.31;5010606;28;20030;-77
2021/01/03 00:07:50;;;;;;;6.82;4.38;;;;;;;-0.28;78.99;96663.56;5000524;28;20041;-77
2021/01/03 00:10:16;;;;;;;7.10;4.20;;;;;;;-0.30;79.97;96662.97;5023521;28;20392;-77
2021/01/03 00:12:41;;;;;;;8.05;4.55;;;;;;;-0.31;79.60;96663.97;5013653;28;20037;-77
2021/01/03 00:15:13;;;;;;;9.65;4.55;;;;;;;-0.41;79.57;96661.75;5025233;28;20041;-76
2021/01/03 00:17:39;;;;;;;6.47;3.97;;;;;;;-0.37;79.97;96649.34;5010346;28;20034;-77
2021/01/03 00:20:09;;;;;;;6.90;4.20;;;;;;;-0.37;79.34;96649.34;5026477;28;20391;-76
2021/01/03 00:22:34;;;;;;;8.90;4.60;;;;;;;-0.33;80.23;96644.66;5026013;28;20022;-76
2021/01/03 00:25:00;;;;;;;8.20;4.25;;;;;;;-0.36;80.28;96645.03;5026161;28;20099;-76
2021/01/03 00:27:26;;;;;;;8.57;4.63;;;;;;;-0.38;79.82;96642.66;5028311;28;20541;-76
2021/01/03 00:29:53;;;;;;;7.10;3.45;;;;;;;-0.35;79.74;96649.97;5022201;28;20127;-76
2021/01/03 00:32:19;;;;;;;8.50;4.10;;;;;;;-0.36;79.59;96635.59;5026279;28;20029;-76
2021/01/03 00:34:45;;;;;;;6.43;3.80;;;;;;;-0.35;78.74;96631.28;5026303;28;20033;-75
2021/01/03 00:37:11;;;;;;;7.82;3.72;;;;;;;-0.30;79.17;96636.63;5027590;28;20111;-76
2021/01/03 00:39:37;;;;;;;7.45;3.75;;;;;;;-0.33;80.07;96640.31;5010004;28;20041;-75
2021/01/03 00:42:06;;;;;;;8.63;4.00;;;;;;;-0.33;79.63;96640.31;5026425;28;20084;-76
2021/01/03 00:44:32;;;;;;;7.32;3.80;;;;;;;-0.38;79.87;96637.53;5026391;28;20029;-77
2021/01/03 00:46:57;;;;;;;7.88;4.22;;;;;;;-0.43;79.42;96634.75;5026322;28;20025;-76
2021/01/03 00:49:23;;;;;;;9.60;4.85;;;;;;;-0.46;79.48;96628.25;5010128;28;20424;-76
2021/01/03 00:51:49;;;;;;;6.68;3.92;;;;;;;-0.40;79.67;96636.94;5026272;28;20280;-75
2021/01/03 00:54:15;;;;;;;7.85;4.40;;;;;;;-0.41;79.77;96630.25;5026772;28;20033;-76
2021/01/03 00:56:41;;;;;;;6.60;3.85;;;;;;;-0.45;79.09;96626.47;5026274;28;20373;-76
2021/01/03 00:59:07;;;;;;;8.70;4.13;;;;;;;-0.46;79.89;96623.16;5019971;28;20030;-76
2021/01/03 01:01:33;;;;;;;7.97;4.40;;;;;;;-0.50;79.50;96626.25;5025768;28;20040;-76
2021/01/03 01:03:58;;;;;;;9.35;4.60;;;;;;;-0.49;80.17;96620.97;5008592;28;20033;-76
2021/01/03 01:06:24;;;;;;;9.57;5.55;;;;;;;-0.50;80.00;96628.81;5009263;28;20026;-76
2021/01/03 01:08:51;;;;;;;8.32;3.83;;;;;;;-0.50;80.21;96634.72;5026346;28;20040;-76
2021/01/03 01:11:18;;;;;;;7.82;4.05;;;;;;;-0.45;80.19;96621.38;5026953;28;20049;-76
2021/01/03 01:13:44;;;;;;;8.93;4.80;;;;;;;-0.55;79.89;96638.81;5027047;28;20040;-75
2021/01/03 01:16:10;;;;;;;12.25;4.93;;;;;;;-0.57;79.47;96633.88;5025839;28;20108;-76
2021/01/03 01:18:36;;;;;;;8.65;4.65;;;;;;;-0.52;80.66;96635.88;5026231;28;20029;-76
2021/01/03 01:21:03;;;;;;;8.57;5.13;;;;;;;-0.55;80.04;96636.25;5024902;28;20025;-76
2021/01/03 01:23:29;;;;;;;8.50;4.80;;;;;;;-0.52;79.82;96643.56;5025142;28;20104;-76
2021/01/03 01:25:55;;;;;;;9.48;5.13;;;;;;;-0.45;80.12;96640.06;5027354;28;20030;-76
2021/01/03 01:28:21;;;;;;;8.50;4.70;;;;;;;-0.52;81.02;96641.00;5132892;22;20054;-79
2021/01/03 01:30:47;;;;;;;10.32;5.30;;;;;;;-0.57;81.21;96641.56;5007047;28;20042;-78
2021/01/03 01:33:13;;;;;;;9.95;5.80;;;;;;;-0.62;81.13;96643.88;5007332;28;20053;-78
2021/01/03 01:35:39;;;;;;;11.00;5.57;;;;;;;-0.61;81.38;96643.69;5190811;23;20161;-78
2021/01/03 01:38:05;;;;;;;11.45;5.65;;;;;;;-0.62;81.74;96652.34;5011088;28;20038;-78
2021/01/03 01:40:35;;;;;;;9.95;5.35;;;;;;;-0.59;80.69;96644.28;5008601;28;20053;-78
2021/01/03 01:43:02;;;;;;;10.27;5.32;;;;;;;-0.60;81.15;96657.25;5009823;28;20034;-78
2021/01/03 01:45:31;;;;;;;12.13;5.70;;;;;;;-0.66;81.74;96647.78;4998238;28;20528;-78
2021/01/03 01:48:01;;;;;;;12.48;6.30;;;;;;;-0.62;81.42;96647.25;4997741;28;20109;-78
2021/01/03 01:50:48;;;;;;;10.65;5.53;;;;;;;-0.63;81.42;96645.66;5013986;28;20041;-78
2021/01/03 01:53:18;;;;;;;12.57;5.32;;;;;;;-0.70;82.06;96649.94;4997625;28;20087;-78
2021/01/03 01:55:51;;;;;;;11.35;5.15;;;;;;;-0.69;82.36;96650.72;4990592;28;20069;-78
2021/01/03 01:58:40;;;;;;;10.07;6.13;;;;;;;-0.69;81.62;96641.28;5009626;28;20098;-79
2021/01/03 02:01:07;;;;;;;12.50;6.22;;;;;;;-0.65;81.83;96650.16;5010723;28;20041;-78
2021/01/03 02:04:07;;;;;;;11.73;6.13;;;;;;;-0.66;81.95;96646.00;5042675;23;20518;-78
2021/01/03 02:06:39;;;;;;;12.02;6.78;;;;;;;-0.62;82.31;96649.81;5022139;28;20047;-76
2021/01/03 02:09:26;;;;;;;14.32;6.28;;;;;;;-0.79;82.31;96633.94;5030911;28;20030;-78
2021/01/03 02:12:27;;;;;;;10.90;6.43;;;;;;;-0.80;82.25;96634.13;5047529;28;20037;-77
2021/01/03 02:14:56;;;;;;;13.13;5.95;;;;;;;-0.70;82.41;96639.72;5029829;28;20029;-76
2021/01/03 02:17:22;;;;;;;12.23;6.20;;;;;;;-0.70;82.22;96632.03;5030803;28;20045;-76
2021/01/03 02:19:49;;;;;;;10.82;6.45;;;;;;;-0.73;82.17;96637.53;5047619;28;20404;-78
2021/01/03 02:22:25;;;;;;;12.90;6.50;;;;;;;-0.77;82.38;96631.22;5047159;28;20056;-76
2021/01/03 02:25:05;;;;;;;10.70;5.95;;;;;;;-0.86;82.47;96624.63;5029469;28;20025;-77
2021/01/03 02:27:45;;;;;;;12.60;6.72;;;;;;;-0.78;82.79;96632.16;5029016;28;20431;-77
2021/01/03 02:30:12;;;;;;;10.57;5.63;;;;;;;-0.79;82.34;96638.25;5030610;28;20033;-76
2021/01/03 02:32:43;;;;;;;11.35;6.25;;;;;;;-0.83;82.67;96629.38;5011629;28;20049;-76
2021/01/03 02:35:12;;;;;;;11.73;5.97;;;;;;;-0.76;82.94;96630.22;5027137;28;20438;-77
2021/01/03 02:37:42;;;;;;;13.45;7.10;;;;;;;-0.81;83.11;96637.66;5028412;28;20459;-76
2021/01/03 02:40:16;;;;;;;10.98;5.65;;;;;;;-0.79;82.56;96628.03;5028991;28;20568;-77
2021/01/03 02:42:42;;;;;;;9.17;5.90;;;;;;;-0.79;82.47;96628.03;5028316;28;20083;-77
2021/01/03 02:45:22;;;;;;;12.18;6.32;;;;;;;-0.83;83.08;96637.81;5028485;28;20036;-77
2021/01/03 02:47:49;;;;;;;9.82;6.68;;;;;;;-0.77;83.00;96633.75;5029238;28;20116;-76
2021/01/03 02:50:25;;;;;;;11.40;6.03;;;;;;;-0.79;82.31;96633.13;5029311;28;20029;-78
2021/01/03 02:52:51;;;;;;;12.52;6.68;;;;;;;-0.70;83.02;96634.59;5028476;28;20025;-76
2021/01/03 02:55:18;;;;;;;12.88;6.43;;;;;;;-0.63;82.45;96635.44;5028389;28;20056;-76
2021/01/03 02:57:45;;;;;;;12.27;6.50;;;;;;;-0.65;82.54;96636.56;5028810;28;20079;-76
2021/01/03 03:00:25;;;;;;;10.95;5.93;;;;;;;-0.79;82.34;96639.06;5022491;28;20136;-78
2021/01/03 03:02:52;;;;;;;11.32;6.28;;;;;;;-0.85;82.96;96636.44;5022573;28;20351;-76
2021/01/03 03:05:18;;;;;;;13.50;6.75;;;;;;;-0.83;82.86;96630.16;5013135;28;20163;-78
2021/01/03 03:07:46;;;;;;;11.45;6.95;;;;;;;-0.82;82.78;96641.97;5030069;28;20037;-76
2021/01/03 03:10:13;;;;;;;9.85;5.60;;;;;;;-0.80;83.14;96634.13;5030323;28;20048;-76
2021/01/03 03:12:38;;;;;;;13.43;7.05;;;;;;;-0.83;82.95;96632.72;5013076;28;20029;-77
2021/01/03 03:15:09;;;;;;;10.82;6.38;;;;;;;-0.76;82.38;96640.44;5012919;28;20060;-76
2021/01/03 03:17:34;;;;;;;12.30;6.05;;;;;;;-0.68;83.72;96631.84;5013353;28;20034;-76
2021/01/03 03:19:59;;;;;;;11.02;6.47;;;;;;;-0.69;82.70;96631.03;5029049;28;20726;-76
2021/01/03 03:22:27;;;;;;;11.13;6.70;;;;;;;-0.69;83.30;96623.38;5013052;28;20033;-76
2021/01/03 03:24:55;;;;;;;13.73;6.70;;;;;;;-0.77;82.79;96633.75;5029151;28;20037;-77
2021/01/03 03:27:21;;;;;;;12.85;6.68;;;;;;;-0.79;83.47;96628.03;5013483;28;20108;-76
2021/01/03 03:29:46;;;;;;;12.95;7.13;;;;;;;-0.77;83.52;96629.44;4996816;28;20095;-77
2021/01/03 03:32:13;;;;;;;12.93;7.07;;;;;;;-0.74;83.42;96625.69;5029036;28;20519;-76
2021/01/03 03:34:39;;;;;;;12.68;7.05;;;;;;;-0.84;82.94;96630.34;5029418;28;20068;-76
2021/01/03 03:37:07;;;;;;;13.10;6.70;;;;;;;-0.81;83.70;96632.53;5012789;28;20034;-76
2021/01/03 03:39:33;;;;;;;12.85;7.10;;;;;;;-0.84;83.71;96628.59;5029030;28;20032;-76
2021/01/03 03:42:01;;;;;;;15.32;7.85;;;;;;;-0.80;83.67;96631.56;5009768;28;20455;-76
2021/01/03 03:44:28;;;;;;;14.93;8.20;;;;;;;-0.76;84.09;96635.31;5012925;28;20427;-76
2021/01/03 03:46:56;;;;;;;13.63;8.02;;;;;;;-0.76;83.77;96632.78;5029705;28;20542;-77
2021/01/03 03:49:23;;;;;;;14.15;7.65;;;;;;;-0.79;83.60;96635.69;5030114;28;20105;-76
2021/01/03 03:51:55;;;;;;;13.57;6.78;;;;;;;-0.86;83.36;96624.63;5013036;28;20433;-78
2021/01/03 03:54:22;;;;;;;12.63;6.63;;;;;;;-0.82;83.41;96620.75;5029467;28;20030;-78
2021/01/03 03:56:49;;;;;;;13.13;6.55;;;;;;;-0.76;83.66;96620.78;5027401;28;20025;-78
2021/01/03 03:59:16;;;;;;;13.20;6.15;;;;;;;-0.81;83.99;96624.88;5029834;28;20030;-78
2021/01/03 04:01:42;;;;;;;13.68;7.07;;;;;;;-0.78;83.67;96615.06;5030101;28;20475;-76
2021/01/03 04:04:08;;;;;;;14.38;7.30;;;;;;;-0.89;84.21;96614.78;5028459;28;20129;-76
2021/01/03 04:06:33;;;;;;;13.95;7.28;;;;;;;-0.90;83.57;96620.88;4995968;28;20137;-76
2021/01/03 04:08:59;;;;;;;12.63;7.57;;;;;;;-0.88;83.33;96616.38;5029481;28;20033;-77
2021/01/03 04:11:25;;;;;;;11.55;6.90;;;;;;;-0.91;84.06;96611.63;5029312;28;20026;-76
2021/01/03 04:13:51;;;;;;;13.45;6.55;;;;;;;-1.00;83.60;96619.41;5030366;28;20048;-78
2021/01/03 04:16:17;;;;;;;13.77;7.15;;;;;;;-0.94;83.25;96617.91;5029594;28;20025;-78
2021/01/03 04:18:44;;;;;;;11.88;7.07;;;;;;;-1.00;83.13;96616.84;5030419;28;20468;-79
2021/01/03 04:21:11;;;;;;;13.82;7.53;;;;;;;-0.86;83.42;96620.31;5029505;28;20053;-78
2021/01/03 04:23:37;;;;;;;11.88;6.57;;;;;;;-0.80;83.78;96618.78;5029041;28;20029;-78
2021/01/03 04:26:03;;;;;;;13.65;7.05;;;;;;;-0.97;84.06;96613.94;5029534;28;20025;-78
2021/01/03 04:28:28;;;;;;;12.30;6.05;;;;;;;-0.88;83.96;96626.59;5012251;28;20111;-78
2021/01/03 04:30:54;;;;;;;11.73;6.55;;;;;;;-0.95;83.94;96614.53;5030095;28;20033;-76
2021/01/03 04:33:21;;;;;;;15.00;6.90;;;;;;;-0.84;84.30;96618.38;5030217;28;20032;-78
2021/01/03 04:35:49;;;;;;;11.32;6.00;;;;;;;-0.91;83.85;96612.41;5012765;28;20048;-78
2021/01/03 04:38:15;;;;;;;12.80;6.85;;;;;;;-0.89;83.85;96619.88;5029047;28;20033;-78
2021/01/03 04:40:40;;;;;;;11.80;6.68;;;;;;;-0.88;84.25;96619.69;5029037;28;20047;-76
2021/01/03 04:43:14;;;;;;;13.48;7.53;;;;;;;-0.89;84.00;96615.59;5027891;28;20475;-78
2021/01/03 04:45:41;;;;;;;14.05;8.20;;;;;;;-0.80;83.84;96613.69;5012719;28;20022;-77
2021/01/03 04:48:15;;;;;;;13.95;6.93;;;;;;;-0.92;83.78;96610.84;5028542;28;20053;-76
2021/01/03 04:50:50;;;;;;;10.55;6.35;;;;;;;-0.88;83.76;96622.25;5028558;28;20114;-78
2021/01/03 04:53:19;;;;;;;;;;;;;;;-0.90;83.63;96613.22;5030151;28;20041;-76
2021/01/03 04:55:49;;;;;;;10.18;6.00;;;;;;;-0.90;83.80;96605.53;5029550;28;19918;-78
2021/01/03 04:58:15;;;;;;;11.32;6.88;;;;;;;-0.83;83.75;96614.03;5029292;28;20025;-78
2021/01/03 05:00:47;;;;;;;11.70;6.15;;;;;;;-0.87;82.96;96608.53;5029215;28;20052;-78
2021/01/03 05:03:29;;;;;;;11.18;6.43;;;;;;;-0.86;83.24;96606.75;5012084;28;20073;-78
2021/01/03 05:05:59;;;;;;;10.57;6.07;;;;;;;-0.82;83.31;96610.53;5012608;28;20534;-78
2021/01/03 05:08:33;;;;;;;10.48;6.25;;;;;;;-0.83;83.37;96608.94;5031422;28;20037;-77
2021/01/03 05:11:17;;;;;;;11.60;6.45;;;;;;;-0.81;83.65;96609.53;5029932;28;20040;-77
2021/01/03 05:13:47;;;;;;;12.27;6.82;;;;;;;-0.79;82.78;96618.59;5030109;28;20034;-78
2021/01/03 05:16:15;;;;;;;11.98;6.65;;;;;;;-0.80;83.26;96609.34;5029581;28;20109;-77
2021/01/03 05:18:41;;;;;;;13.32;7.10;;;;;;;-0.80;83.15;96598.34;5014356;28;20561;-77
2021/01/03 05:21:07;;;;;;;11.02;6.32;;;;;;;-0.77;83.33;96615.88;5033164;28;20472;-77
2021/01/03 05:23:38;;;;;;;11.13;6.72;;;;;;;-0.73;83.56;96614.50;5032299;28;20021;-77
2021/01/03 05:26:08;;;;;;;10.70;5.90;;;;;;;-0.74;82.85;96612.13;5015989;28;20573;-77
2021/01/03 05:28:36;;;;;;;9.15;6.20;;;;;;;-0.74;82.39;96615.47;5033519;28;20587;-77
2021/01/03 05:31:18;;;;;;;12.25;6.72;;;;;;;-0.78;83.15;96611.72;5033317;28;20033;-77
2021/01/03 05:33:53;;;;;;;11.27;6.57;;;;;;;-0.83;82.62;96603.81;5017125;28;20253;-77
2021/01/03 05:36:42;;;;;;;12.73;7.05;;;;;;;-0.89;83.05;96600.25;5049743;28;20034;-77
2021/01/03 05:39:26;;;;;;;11.70;6.97;;;;;;;-0.91;82.91;96611.63;5019769;28;20037;-77
2021/01/03 05:42:14;;;;;;;12.38;6.28;;;;;;;-0.88;82.60;96604.38;5032994;28;20036;-77
2021/01/03 05:44:42;;;;;;;12.40;6.72;;;;;;;-0.83;83.04;96604.59;4998896;28;20030;-77
2021/01/03 05:47:20;;;;;;;13.43;7.65;;;;;;;-0.80;82.63;96608.56;5032596;28;20029;-77
2021/01/03 05:50:17;;;;;;;12.38;6.78;;;;;;;-0.82;81.98;96605.41;5033886;28;20025;-77
2021/01/03 05:52:49;;;;;;;11.85;6.18;;;;;;;-0.81;82.55;96612.88;5032138;28;20034;-78
2021/01/03 05:55:20;;;;;;;11.05;6.80;;;;;;;-0.83;82.49;96603.81;5030383;28;20041;-77
2021/01/03 05:57:46;;;;;;;11.43;6.43;;;;;;;-0.77;82.58;96601.31;5029998;28;20029;-77
2021/01/03 06:00:25;;;;;;;13.43;7.63;;;;;;;-0.83;82.81;96601.25;5014194;28;20037;-77
2021/01/03 06:02:51;;;;;;;12.77;7.50;;;;;;;-0.65;82.57;96608.44;4994505;28;20054;-77
2021/01/03 06:05:23;;;;;;;14.57;8.43;;;;;;;-0.67;82.43;96611.22;5026282;28;20029;-78
2021/01/03 06:08:01;;;;;;;11.05;6.93;;;;;;;-0.80;82.42;96614.47;5027258;28;20373;-78
2021/01/03 06:10:35;;;;;;;12.85;7.32;;;;;;;-0.76;83.03;96615.66;5029975;28;20112;-77
2021/01/03 06:13:02;;;;;;;13.23;7.32;;;;;;;-0.69;82.86;96602.16;5029076;28;20033;-77
2021/01/03 06:15:29;;;;;;;14.32;7.30;;;;;;;-0.66;82.36;96610.22;5010947;28;20480;-78
2021/01/03 06:17:58;;;;;;;13.85;7.80;;;;;;;-0.58;82.99;96620.31;5028955;28;20064;-77
2021/01/03 06:20:27;;;;;;;12.80;7.13;;;;;;;-0.63;82.79;96624.41;5030834;28;20056;-78
2021/01/03 06:23:01;;;;;;;11.82;7.03;;;;;;;-0.61;82.63;96617.34;5030029;28;20030;-77
2021/01/03 06:25:29;;;;;;;13.23;7.68;;;;;;;-0.62;82.47;96616.56;5028649;28;20571;-77
2021/01/03 06:28:04;;;;;;;12.98;7.25;;;;;;;-0.63;82.79;96614.19;5028926;28;20068;-78
2021/01/03 06:30:32;;;;;;;11.95;6.93;;;;;;;-0.58;83.04;96612.66;5028687;28;20115;-77
2021/01/03 06:33:17;;;;;;;12.93;6.78;;;;;;;-0.62;83.34;96614.00;5029210;28;20225;-77
2021/01/03 06:35:54;;;;;;;14.35;6.85;;;;;;;-0.53;83.13;96617.22;5029596;28;20026;-77
2021/01/03 06:38:52;;;;;;;13.52;7.70;;;;;;;-0.61;83.05;96617.34;5014176;28;20029;-77
2021/01/03 06:41:24;;;;;;;9.80;6.28;;;;;;;-0.56;83.21;96612.47;5024962;28;20120;-77
2021/01/03 06:43:50;;;;;;;14.15;6.95;;;;;;;-0.45;83.30;96627.25;5031160;28;20036;-78
2021/01/03 06:46:47;;;;;;;12.80;7.60;;;;;;;-0.59;83.10;96620.50;5032451;28;20030;-78
2021/01/03 06:49:32;;;;;;;10.48;6.40;;;;;;;-0.51;83.38;96627.25;5024053;28;20438;-78
2021/01/03 06:52:13;;;;;;;18.15;8.63;;;;;;;-0.63;83.13;96612.41;5030104;28;20029;-77
2021/01/03 06:54:46;;;;;;;13.75;7.45;;;;;;;-0.52;83.57;96616.22;5029498;28;20062;-77
2021/01/03 06:57:50;;;;;;;13.18;7.45;;;;;;;-0.55;83.61;96618.34;5013825;28;20361;-77
2021/01/03 07:00:24;;;;;;;15.88;8.35;;;;;;;-0.58;83.34;96617.75;5033967;28;20148;-78
2021/01/03 07:02:58;;;;;;;12.70;7.07;;;;;;;-0.60;83.32;96617.16;5032354;28;20046;-78
2021/01/03 07:05:24;;;;;;;15.60;9.13;;;;;;;-0.56;83.48;96625.25;5013844;28;20440;-78
2021/01/03 07:08:15;;;;;;;18.38;9.25;;;;;;;-0.59;84.66;96623.06;5028461;28;20041;-77
2021/01/03 07:10:42;;;;;;;19.92;9.05;;;;;;;-0.50;83.95;96613.47;5026883;28;20041;-77
2021/01/03 07:13:31;;;;;;;17.98;9.88;;;;;;;-0.57;83.91;96621.91;5028848;28;20029;-77
2021/01/03 07:15:58;;;;;;;18.05;8.80;;;;;;;-0.50;83.94;96628.81;5020156;28;20048;-78
2021/01/03 07:18:40;;;;;;;15.70;9.43;;;;;;;-0.58;83.70;96622.88;5030424;28;20032;-78
2021/01/03 07:21:06;;;;;;;14.27;8.02;;;;;;;-0.51;83.68;96624.69;5012670;28;20087;-78
2021/01/03 07:23:38;;;;;;;11.90;7.35;;;;;;;-0.52;83.47;96623.09;5029319;28;20427;-78
2021/01/03 07:26:23;;;;;;;29.23;17.52;;;;;;;-0.67;83.61;96613.78;5031911;28;20119;-77
2021/01/03 07:28:53;;;;;;;22.60;15.90;;;;;;;-0.50;83.47;96628.81;5029132;28;20109;-78
2021/01/03 07:31:22;;;;;;;22.05;12.23;;;;;;;-0.55;83.92;96619.13;5024653;28;20049;-78
2021/01/03 07:33:55;;;;;;;15.93;11.20;;;;;;;-0.52;84.60;96629.00;5030950;28;20033;-77
2021/01/03 07:37:01;;;;;;;17.13;11.18;;;;;;;-0.57;83.57;96619.34;5008987;28;20021;-77
2021/01/03 07:39:32;;;;;;;17.90;10.05;;;;;;;-0.62;83.79;96614.00;5028929;28;20037;-78
2021/01/03 07:42:16;;;;;;;19.08;10.75;;;;;;;-0.58;84.34;96612.66;5027850;28;20033;-78
2021/01/03 07:44:42;;;;;;;16.08;9.20;;;;;;;-0.63;83.66;96607.31;5031184;28;20022;-78
2021/01/03 07:47:07;;;;;;;14.15;8.73;;;;;;;-0.54;84.24;96622.50;4994437;28;20488;-78
2021/01/03 07:49:37;;;;;;;17.63;9.32;;;;;;;-0.50;84.00;96618.59;5029791;28;20044;-78
2021/01/03 07:52:29;;;;;;;19.27;9.52;;;;;;;-0.56;83.93;96620.13;5029216;28;20120;-78
2021/01/03 07:54:56;;;;;;;16.23;9.77;;;;;;;-0.54;84.00;96615.63;5011287;28;20049;-78
2021/01/03 07:57:26;;;;;;;16.90;8.82;;;;;;;-0.57;84.09;96626.22;5026994;28;20084;-78
2021/01/03 07:59:56;;;;;;;17.13;9.13;;;;;;;-0.53;84.29;96630.00;5044328;28;20041;-78
2021/01/03 08:02:29;;;;;;;17.63;10.18;;;;;;;-0.50;84.11;96631.38;5027790;28;20057;-77
2021/01/03 08:04:56;;;;;;;15.27;9.55;;;;;;;-0.42;83.39;96626.13;5028869;28;20060;-77
2021/01/03 08:07:22;;;;;;;15.65;9.43;;;;;;;-0.50;84.20;96618.59;5014009;28;20021;-78
2021/01/03 08:09:49;;;;;;;14.95;8.77;;;;;;;-0.46;83.55;96630.03;5049834;28;20112;-78
2021/01/03 08:12:30;;;;;;;14.07;8.75;;;;;;;-0.40;84.18;96624.94;5033863;28;20447;-78
2021/01/03 08:15:17;;;;;;;14.60;8.88;;;;;;;-0.39;84.03;96625.75;5014430;28;20034;-78
2021/01/03 08:17:44;;;;;;;15.57;9.48;;;;;;;-0.30;83.12;96622.03;5032371;28;20025;-78
2021/01/03 08:20:25;;;;;;;20.77;12.68;;;;;;;-0.41;83.65;96622.59;5016752;28;20064;-78
2021/01/03 08:22:51;;;;;;;20.85;12.55;;;;;;;-0.31;83.26;96633.28;5033580;28;20060;-78
2021/01/03 08:25:24;;;;;;;14.65;8.63;;;;;;;-0.41;83.45;96630.25;5036322;28;20033;-78
2021/01/03 08:27:55;;;;;;;16.73;9.48;;;;;;;-0.47;83.73;96628.44;5050108;28;20030;-78
2021/01/03 08:30:22;;;;;;;15.90;8.60;;;;;;;-0.46;83.51;96628.25;5034451;28;20021;-78
2021/01/03 08:32:48;;;;;;;15.55;8.25;;;;;;;-0.49;83.87;96635.53;5011943;28;20022;-78
2021/01/03 08:35:23;;;;;;;15.57;9.02;;;;;;;-0.45;84.50;96639.28;5016825;28;20033;-78
2021/01/03 08:37:49;;;;;;;17.40;9.98;;;;;;;-0.39;84.02;96633.41;5033616;28;20253;-78
2021/01/03 08:40:18;;;;;;;17.40;9.45;;;;;;;-0.32;83.53;96646.25;5033354;28;20113;-78
2021/01/03 08:42:49;;;;;;;13.93;9.32;;;;;;;-0.33;83.78;96640.31;5016170;28;20030;-78
2021/01/03 08:45:21;;;;;;;17.13;9.27;;;;;;;-0.28;84.09;96647.44;5033546;28;20434;-78
2021/01/03 08:47:47;;;;;;;14.65;8.93;;;;;;;-0.28;83.55;96653.34;5032907;28;20033;-78
2021/01/03 08:50:22;;;;;;;14.57;8.88;;;;;;;-0.27;83.16;96656.72;5012958;28;20037;-77
2021/01/03 08:52:58;;;;;;;14.07;8.88;;;;;;;-0.24;83.01;96653.75;5036138;28;20029;-77
2021/01/03 08:55:27;;;;;;;13.35;7.80;;;;;;;-0.18;83.38;96658.13;5036948;28;20365;-78
2021/01/03 08:57:54;;;;;;;15.95;9.00;;;;;;;-0.28;83.60;96648.22;5037856;28;20814;-78
2021/01/03 09:00:22;;;;;;;14.73;8.45;;;;;;;-0.17;83.10;96652.03;5021953;28;20080;-78
2021/01/03 09:02:47;;;;;;;15.95;8.68;;;;;;;-0.29;83.52;96643.28;5003521;28;20571;-78
2021/01/03 09:05:18;;;;;;;14.10;8.48;;;;;;;-0.29;83.20;96650.97;5021352;28;20076;-78
2021/01/03 09:07:45;;;;;;;15.27;8.93;;;;;;;-0.29;83.67;96656.91;5037954;28;20053;-78
2021/01/03 09:10:25;;;;;;;13.73;8.32;;;;;;;-0.34;83.91;96643.88;5020732;28;20066;-78
2021/01/03 09:13:02;;;;;;;13.63;8.05;;;;;;;-0.35;83.47;96652.50;5036459;28;20033;-78
2021/01/03 09:15:29;;;;;;;15.52;8.07;;;;;;;-0.49;84.33;96650.88;5037850;28;20482;-78
2021/01/03 09:18:10;;;;;;;15.35;9.88;;;;;;;-0.58;84.73;96656.13;5038263;28;20029;-78
2021/01/03 09:20:43;;;;;;;13.82;8.00;;;;;;;-0.53;84.59;96663.22;5011349;28;20036;-78
2021/01/03 09:23:14;;;;;;;14.35;8.02;;;;;;;-0.43;84.27;96655.22;5036918;28;20366;-78
2021/01/03 09:25:41;;;;;;;14.55;8.95;;;;;;;-0.42;84.75;96661.91;5038121;28;20104;-78
2021/01/03 09:28:30;;;;;;;13.48;7.78;;;;;;;-0.47;84.63;96664.25;5021419;28;20486;-78
2021/01/03 09:31:22;;;;;;;13.80;8.07;;;;;;;-0.33;84.59;96671.03;5037535;28;20021;-78
2021/01/03 09:33:51;;;;;;;15.63;9.07;;;;;;;-0.26;84.45;96669.31;5030450;28;20432;-78
2021/01/03 09:36:27;;;;;;;13.75;8.48;;;;;;;-0.35;84.53;96667.09;5036459;28;20053;-78
2021/01/03 09:39:31;;;;;;;17.10;9.45;;;;;;;-0.37;85.33;96672.38;5037829;28;20029;-78
2021/01/03 09:42:36;;;;;;;14.68;8.43;;;;;;;-0.33;85.23;96677.91;5070234;28;20021;-78
2021/01/03 09:45:10;;;;;;;18.50;10.03;;;;;;;-0.26;85.87;96684.66;4999978;28;20057;-78
2021/01/03 09:47:44;;;;;;;17.00;9.57;;;;;;;-0.31;85.72;96676.75;4986764;28;20033;-78
2021/01/03 09:50:14;;;;;;;15.77;8.93;;;;;;;-0.25;85.14;96683.66;4999915;28;20089;-78
2021/01/03 09:52:48;;;;;;;17.90;9.40;;;;;;;-0.26;86.02;96686.41;5011169;28;20060;-78
2021/01/03 09:55:26;;;;;;;15.65;9.52;;;;;;;-0.32;85.64;96687.97;4998777;28;20349;-78
2021/01/03 09:57:52;;;;;;;14.63;9.35;;;;;;;-0.17;85.70;96687.06;4996490;28;20038;-78
2021/01/03 10:00:21;;;;;;;16.63;9.20;;;;;;;-0.22;86.27;96692.75;5001248;28;20036;-78
2021/01/03 10:02:46;;;;;;;13.68;8.43;;;;;;;-0.23;86.30;96686.03;4999105;28;20054;-78
2021/01/03 10:05:27;;;;;;;14.75;9.45;;;;;;;-0.25;86.38;96676.00;4997982;28;20117;-78
2021/01/03 10:08:02;;;;;;;15.35;10.13;;;;;;;-0.22;86.86;96688.41;4995911;28;20045;-77
2021/01/03 10:10:49;;;;;;;14.13;9.00;;;;;;;-0.30;87.03;96682.66;4998724;28;20040;-78
2021/01/03 10:13:16;;;;;;;15.63;8.90;;;;;;;-0.17;86.18;96687.88;5013967;28;20030;-78
2021/01/03 10:15:43;;;;;;;15.43;9.13;;;;;;;-0.21;86.87;96682.34;5024450;28;20120;-78
2021/01/03 10:18:13;;;;;;;16.33;9.73;;;;;;;-0.29;87.15;96685.03;5018602;28;20096;-78
2021/01/03 10:20:50;;;;;;;24.10;12.02;;;;;;;-0.32;87.77;96687.97;5037595;28;20027;-78
2021/01/03 10:23:39;;;;;;;24.63;13.20;;;;;;;-0.34;88.22;96692.47;5036898;28;20026;-78
2021/01/03 10:26:18;;;;;;;18.80;10.43;;;;;;;-0.34;88.41;96681.44;5035724;28;20036;-78
2021/01/03 10:28:44;;;;;;;16.65;9.25;;;;;;;-0.25;87.80;96693.91;5002963;28;20029;-78
2021/01/03 10:31:09;;;;;;;18.70;10.75;;;;;;;-0.24;87.87;96690.38;5013969;28;20033;-78
2021/01/03 10:33:36;;;;;;;17.23;10.57;;;;;;;-0.25;88.33;96683.66;5032949;28;20119;-78
2021/01/03 10:36:02;;;;;;;14.23;9.10;;;;;;;-0.20;87.98;96686.44;5029953;28;20420;-77
2021/01/03 10:38:28;;;;;;;16.38;9.30;;;;;;;-0.16;88.25;96688.66;5001201;28;20128;-78
2021/01/03 10:40:53;;;;;;;15.52;9.15;;;;;;;-0.14;87.97;96694.34;5001443;28;20037;-78
2021/01/03 10:43:19;;;;;;;14.63;9.18;;;;;;;-0.14;87.77;96686.69;5033792;28;20112;-78
2021/01/03 10:45:45;;;;;;;14.60;9.25;;;;;;;-0.06;87.71;96686.53;5017640;28;20484;-78
2021/01/03 10:48:14;;;;;;;13.20;8.88;;;;;;;-0.25;87.88;96678.56;4997902;28;20278;-78
2021/01/03 10:50:39;;;;;;;16.60;9.63;;;;;;;-0.21;87.87;96678.97;5032013;28;20029;-78
2021/01/03 10:53:05;;;;;;;16.15;9.35;;;;;;;-0.20;87.86;96683.91;5033276;28;20043;-77
2021/01/03 10:55:31;;;;;;;16.48;10.15;;;;;;;-0.14;87.56;96671.31;5031582;28;20033;-77
2021/01/03 10:57:57;;;;;;;16.27;9.32;;;;;;;-0.07;87.89;96674.72;5032632;28;20029;-77
2021/01/03 11:00:23;;;;;;;14.95;9.80;;;;;;;-0.12;87.54;96677.03;5031674;28;20056;-78
2021/01/03 11:02:49;;;;;;;13.82;8.32;;;;;;;-0.04;87.20;96669.22;5031645;28;20104;-78
2021/01/03 11:05:19;;;;;;;14.20;8.38;;;;;;;-0.06;86.27;96668.63;5032095;28;20029;-78
2021/01/03 11:07:45;;;;;;;14.35;8.55;;;;;;;-0.06;87.67;96666.06;5016676;28;20041;-78
2021/01/03 11:10:12;;;;;;;14.25;9.52;;;;;;;-0.10;87.20;96675.09;5033161;28;20528;-78
2021/01/03 11:12:38;;;;;;;16.25;9.43;;;;;;;-0.21;88.03;96664.44;5032008;28;20096;-78
2021/01/03 11:15:07;;;;;;;15.43;9.30;;;;;;;-0.26;88.61;96671.88;5032236;28;20135;-77
2021/01/03 11:17:32;;;;;;;14.95;9.38;;;;;;;-0.16;87.60;96661.28;5030069;28;20173;-78
2021/01/03 11:19:58;;;;;;;14.48;8.73;;;;;;;-0.13;87.75;96655.00;5031859;28;20073;-78
2021/01/03 11:22:23;;;;;;;14.30;9.20;;;;;;;-0.10;87.64;96659.75;4997762;28;20220;-77
2021/01/03 11:24:49;;;;;;;15.75;9.52;;;;;;;-0.12;88.36;96667.63;5033191;28;20627;-77
2021/01/03 11:27:18;;;;;;;17.25;9.32;;;;;;;-0.13;88.58;96665.25;5032264;28;20017;-78
2021/01/03 11:29:44;;;;;;;13.82;8.27;;;;;;;-0.12;87.53;96646.34;5033335;28;20033;-78
2021/01/03 11:32:25;;;;;;;14.00;8.00;;;;;;;-0.13;87.47;96665.25;5026180;28;20516;-78
2021/01/03 11:34:51;;;;;;;13.63;8.57;;;;;;;-0.16;88.28;96647.72;5030747;28;20509;-78
2021/01/03 11:37:23;;;;;;;15.73;10.25;;;;;;;-0.18;88.18;96653.00;4998746;28;20034;-78
2021/01/03 11:39:50;;;;;;;13.77;8.43;;;;;;;-0.16;88.81;96645.94;5032845;28;20025;-78
2021/01/03 11:42:24;;;;;;;13.95;8.32;;;;;;;-0.18;88.17;96660.69;5015193;28;20530;-77
2021/01/03 11:44:49;;;;;;;14.85;9.02;;;;;;;-0.09;88.65;96651.09;5032345;28;20033;-77